Bishop International Airport

Airport
ICAO code: 
KFNT
Summary
ICAO Region: 
NAM
Territory: 
Location: 
Flint, Michigan,
Elevation: 
782 ft
Coordinates: 
Aerial View: 
42° 57' 38.702" N, 83° 44' 32.086" W
Airport CFIT: 
Altimeter Temperature Error Correction
Airport WX: 
Cumulonimbus
Metar
Observation
KFNT 020853Z AUTO 20012G26KT 10SM BKN085 BKN120 08/04 A2954 RMK AO2 PK WND 21026/0853 SLP008 T00830044 58033
Station
Flint, Bishop International Airport
Date/Time
2021-12-02 08:53:00
Wind direction
200°
Wind speed
12 kts
Lowest cloud amount
broken clouds
Temperature
8.3°C
Dew point
4.4°C
Humidity
76%
Weather condition
n/a

Description

Bishop International Airport is a commercial and general aviation airport located in Flint, Michigan.

Climatology

Humid Continental climate (Köppen climate classification Dfb) - Variable weather patterns and a large seasonal temperature variance. Summers are often warm and humid with frequent thunderstorms and winters can be very cold with frequent snowfall and persistent snow cover.

Runways

Designator Length Width Surface Rops
9/27 2195 46 ASP Yes/Yes
18/36 2392 46 ASP Yes/Yes
Airport map: 
Aerial View: 

SKYbrary Partners:

Safety knowledge contributed by: